createdAt,value
2022-10-11T00:01:48.143Z,12.40
2022-10-11T00:04:15.450Z,12.40
2022-10-11T00:06:43.749Z,12.40
2022-10-11T00:09:14.651Z,12.40
2022-10-11T00:11:42.175Z,12.40
2022-10-11T00:14:09.470Z,12.40
2022-10-11T00:16:38.914Z,12.40
2022-10-11T00:19:06.153Z,12.40
2022-10-11T00:21:33.443Z,12.30
2022-10-11T00:24:00.679Z,12.30
2022-10-11T00:26:28.046Z,12.30
2022-10-11T00:28:55.741Z,12.30
2022-10-11T00:31:23.222Z,12.20
2022-10-11T00:33:50.911Z,12.30
2022-10-11T00:36:18.810Z,12.20
2022-10-11T00:38:46.163Z,12.20
2022-10-11T00:41:13.687Z,12.20
2022-10-11T00:43:41.018Z,12.20
2022-10-11T00:46:17.269Z,12.20
2022-10-11T00:48:46.315Z,12.20
2022-10-11T00:51:19.880Z,12.20
2022-10-11T00:53:48.013Z,12.20
2022-10-11T00:56:20.874Z,12.20
2022-10-11T00:58:48.164Z,12.30
2022-10-11T01:01:15.461Z,12.30
2022-10-11T01:03:43.399Z,12.30
2022-10-11T01:06:10.655Z,12.30
2022-10-11T01:08:38.099Z,12.30
2022-10-11T01:11:05.538Z,12.40
2022-10-11T01:13:47.976Z,12.40
2022-10-11T01:16:32.047Z,12.40
2022-10-11T01:19:02.166Z,12.50
2022-10-11T01:21:41.758Z,12.50
2022-10-11T01:24:47.831Z,12.60
2022-10-11T01:27:30.433Z,12.60
2022-10-11T01:30:24.202Z,12.60
2022-10-11T01:32:59.947Z,12.60
2022-10-11T01:35:47.194Z,12.60
2022-10-11T01:38:18.951Z,12.60
2022-10-11T01:40:51.287Z,12.60
2022-10-11T01:43:18.571Z,12.60
2022-10-11T01:45:47.942Z,12.60
2022-10-11T01:48:15.184Z,12.60
2022-10-11T01:50:55.500Z,12.60
2022-10-11T01:53:32.055Z,12.60
2022-10-11T01:56:05.673Z,12.60
2022-10-11T01:58:58.047Z,12.70
2022-10-11T02:01:50.101Z,12.60
2022-10-11T02:04:27.939Z,12.70
2022-10-11T02:06:59.395Z,12.70
2022-10-11T02:09:42.727Z,12.70
2022-10-11T02:12:12.404Z,12.60
2022-10-11T02:14:42.075Z,12.60
2022-10-11T02:17:12.615Z,12.60
2022-10-11T02:19:42.870Z,12.60
2022-10-11T02:22:16.035Z,12.60
2022-10-11T02:24:44.224Z,12.60
2022-10-11T02:27:11.500Z,12.60
2022-10-11T02:29:40.163Z,12.60
2022-10-11T02:32:07.510Z,12.60
2022-10-11T02:34:54.574Z,12.60
2022-10-11T02:37:26.777Z,12.60
2022-10-11T02:39:56.687Z,12.60
2022-10-11T02:42:28.358Z,12.60
2022-10-11T02:45:01.214Z,12.60
2022-10-11T02:47:29.151Z,12.60
2022-10-11T02:49:56.426Z,12.60
2022-10-11T02:52:23.658Z,12.60
2022-10-11T02:54:50.994Z,12.60
2022-10-11T02:57:18.260Z,12.60
2022-10-11T02:59:45.512Z,12.60
2022-10-11T03:02:12.843Z,12.60
2022-10-11T03:04:40.079Z,12.60
2022-10-11T03:07:07.324Z,12.50
2022-10-11T03:09:34.567Z,12.60
2022-10-11T03:12:01.809Z,12.50
2022-10-11T03:14:29.062Z,12.60
2022-10-11T03:17:00.735Z,12.50
2022-10-11T03:19:39.467Z,12.60
2022-10-11T03:22:07.130Z,12.60
2022-10-11T03:24:34.413Z,12.60
2022-10-11T03:27:01.711Z,12.50
2022-10-11T03:29:28.967Z,12.60
2022-10-11T03:31:56.287Z,12.60
2022-10-11T03:34:23.537Z,12.60
2022-10-11T03:36:50.889Z,12.60
2022-10-11T03:39:18.210Z,12.60
2022-10-11T03:41:45.488Z,12.60
2022-10-11T03:44:12.778Z,12.60
2022-10-11T03:46:40.017Z,12.60
2022-10-11T03:49:07.298Z,12.60
2022-10-11T03:51:34.732Z,12.70
2022-10-11T03:54:02.067Z,12.70
2022-10-11T03:56:29.378Z,12.70
2022-10-11T03:58:56.670Z,12.70
2022-10-11T04:01:23.989Z,12.70
2022-10-11T04:03:51.300Z,12.60
2022-10-11T04:06:18.731Z,12.60
2022-10-11T04:08:45.994Z,12.60
2022-10-11T04:11:13.315Z,12.60
2022-10-11T04:13:40.579Z,12.60
2022-10-11T04:16:08.216Z,12.60
2022-10-11T04:18:35.792Z,12.60
2022-10-11T04:21:03.113Z,12.60
2022-10-11T04:23:31.357Z,12.60
2022-10-11T04:25:58.678Z,12.60
2022-10-11T04:28:26.144Z,12.60
2022-10-11T04:30:53.451Z,12.60
2022-10-11T04:33:20.829Z,12.60
2022-10-11T04:35:48.095Z,12.50
2022-10-11T04:38:16.088Z,12.50
2022-10-11T04:40:43.351Z,12.50
2022-10-11T04:43:10.920Z,12.50
2022-10-11T04:45:38.328Z,12.50
2022-10-11T04:48:05.945Z,12.50
2022-10-11T04:50:33.287Z,12.50
2022-10-11T04:53:00.551Z,12.50
2022-10-11T04:55:29.062Z,12.50
2022-10-11T04:57:56.592Z,12.50
2022-10-11T05:00:23.993Z,12.50
2022-10-11T05:02:52.943Z,12.40
2022-10-11T05:05:20.207Z,12.50
2022-10-11T05:07:47.445Z,12.50
2022-10-11T05:10:14.969Z,12.40
2022-10-11T05:12:42.244Z,12.40
2022-10-11T05:15:09.922Z,12.40
2022-10-11T05:17:37.198Z,12.40
2022-10-11T05:20:04.863Z,12.40
2022-10-11T05:22:32.077Z,12.40
2022-10-11T05:24:59.301Z,12.40
2022-10-11T05:27:26.543Z,12.40
2022-10-11T05:29:53.976Z,12.40
2022-10-11T05:32:21.313Z,12.30
2022-10-11T05:34:48.536Z,12.30
2022-10-11T05:37:15.754Z,12.30
2022-10-11T05:39:43.012Z,12.30
2022-10-11T05:42:10.333Z,12.30
2022-10-11T05:44:37.565Z,12.30
2022-10-11T05:47:04.845Z,12.30
2022-10-11T05:49:32.068Z,12.30
2022-10-11T05:51:59.336Z,12.30
2022-10-11T05:54:30.047Z,12.30
2022-10-11T05:56:57.336Z,12.30
2022-10-11T05:59:24.654Z,12.40
2022-10-11T06:01:51.946Z,12.40
2022-10-11T06:04:19.243Z,12.40
2022-10-11T06:06:46.514Z,12.40
2022-10-11T06:09:13.788Z,12.50
2022-10-11T06:11:42.451Z,12.50
2022-10-11T06:14:09.738Z,12.50
2022-10-11T06:16:37.056Z,12.50
2022-10-11T06:19:04.438Z,12.50
2022-10-11T06:21:31.771Z,12.60
2022-10-11T06:24:01.823Z,12.60
2022-10-11T06:26:29.484Z,12.60
2022-10-11T06:28:57.086Z,12.60
2022-10-11T06:31:24.537Z,12.60
2022-10-11T06:33:51.860Z,12.70
2022-10-11T06:36:19.143Z,12.70
2022-10-11T06:38:46.432Z,12.70
2022-10-11T06:41:17.976Z,12.70
2022-10-11T06:43:45.435Z,12.80
2022-10-11T06:46:12.762Z,12.80
2022-10-11T06:48:43.827Z,12.80
2022-10-11T06:51:11.654Z,12.80
2022-10-11T06:53:39.008Z,12.90
2022-10-11T06:56:10.696Z,12.90
2022-10-11T06:58:38.711Z,12.90
2022-10-11T07:01:07.997Z,12.90
2022-10-11T07:03:35.598Z,13.00
2022-10-11T07:06:04.387Z,13.00
2022-10-11T07:08:31.902Z,13.10
2022-10-11T07:11:02.996Z,13.10
2022-10-11T07:13:30.428Z,13.20
2022-10-11T07:16:00.222Z,13.20
2022-10-11T07:18:27.613Z,13.20
2022-10-11T07:20:54.923Z,13.30
2022-10-11T07:23:22.201Z,13.30
2022-10-11T07:25:49.955Z,13.30
2022-10-11T07:28:17.321Z,13.40
2022-10-11T07:30:44.827Z,13.30
2022-10-11T07:33:12.066Z,13.40
2022-10-11T07:35:39.355Z,13.40
2022-10-11T07:38:06.796Z,13.40
2022-10-11T07:40:34.207Z,13.50
2022-10-11T07:43:01.828Z,13.50
2022-10-11T07:45:29.096Z,13.50
2022-10-11T07:47:56.845Z,13.60
2022-10-11T07:50:24.607Z,13.60
2022-10-11T07:52:51.864Z,13.70
2022-10-11T07:55:19.158Z,13.70
2022-10-11T07:57:46.456Z,13.70
2022-10-11T08:00:14.094Z,13.80
2022-10-11T08:02:41.395Z,13.80
2022-10-11T08:05:09.298Z,13.80
2022-10-11T08:07:36.858Z,13.90
2022-10-11T08:10:05.716Z,13.90
2022-10-11T08:12:33.011Z,14.00
2022-10-11T08:15:00.342Z,14.00
2022-10-11T08:17:28.286Z,14.00
2022-10-11T08:19:55.522Z,14.10
2022-10-11T08:22:22.769Z,14.10
2022-10-11T08:24:50.081Z,14.10
2022-10-11T08:27:17.465Z,14.20
2022-10-11T08:29:44.774Z,14.20
2022-10-11T08:32:12.298Z,14.20
2022-10-11T08:34:39.555Z,14.20
2022-10-11T08:37:06.822Z,14.20
2022-10-11T08:39:34.704Z,14.20
2022-10-11T08:42:11.641Z,14.30
2022-10-11T08:47:32.587Z,14.30
2022-10-11T08:50:00.118Z,14.40
2022-10-11T08:52:28.206Z,14.40
2022-10-11T08:54:59.795Z,14.40
2022-10-11T08:57:28.353Z,14.50
2022-10-11T09:00:14.814Z,14.50
2022-10-11T09:03:09.727Z,14.50
2022-10-11T09:06:02.237Z,14.50
2022-10-11T09:09:17.013Z,14.60
2022-10-11T09:12:02.270Z,14.60
2022-10-11T09:14:40.388Z,14.60
2022-10-11T09:17:30.823Z,14.70
2022-10-11T09:20:03.730Z,14.70
2022-10-11T09:22:34.036Z,14.80
2022-10-11T09:25:07.116Z,14.80
2022-10-11T09:28:11.901Z,14.80
2022-10-11T09:30:48.058Z,14.90
2022-10-11T09:33:24.544Z,14.90
2022-10-11T09:35:52.219Z,14.90
2022-10-11T09:38:25.329Z,14.90
2022-10-11T09:41:24.982Z,14.90
2022-10-11T09:43:52.360Z,14.90
2022-10-11T09:46:36.362Z,14.90
2022-10-11T09:49:04.768Z,14.90
2022-10-11T09:51:32.056Z,15.00
2022-10-11T09:54:01.577Z,15.00
2022-10-11T09:56:29.984Z,15.00
2022-10-11T09:59:10.018Z,15.10
2022-10-11T10:01:37.424Z,15.20
2022-10-11T10:04:10.831Z,15.30
2022-10-11T10:06:38.584Z,15.30
2022-10-11T10:09:22.399Z,15.40
2022-10-11T10:11:49.663Z,15.40
2022-10-11T10:14:29.971Z,15.50
2022-10-11T10:17:08.590Z,15.40
2022-10-11T10:19:44.910Z,15.50
2022-10-11T10:22:32.572Z,15.50
2022-10-11T10:25:01.796Z,15.50
2022-10-11T10:27:30.073Z,15.60
2022-10-11T10:30:09.386Z,15.50
2022-10-11T10:33:02.831Z,15.50
2022-10-11T10:35:35.271Z,15.40
2022-10-11T10:38:05.639Z,15.40
2022-10-11T10:40:40.362Z,15.40
2022-10-11T10:43:15.550Z,15.40
2022-10-11T10:45:57.359Z,15.40
2022-10-11T10:48:48.168Z,15.40
2022-10-11T10:51:23.774Z,15.40
2022-10-11T10:53:58.504Z,15.40
2022-10-11T10:56:30.415Z,15.40
2022-10-11T10:58:57.732Z,15.40
2022-10-11T11:01:32.063Z,15.40
2022-10-11T11:04:38.405Z,15.40
2022-10-11T11:07:08.456Z,15.50
2022-10-11T11:09:50.606Z,15.50
2022-10-11T11:12:29.896Z,15.50
2022-10-11T11:15:19.065Z,15.60
2022-10-11T11:18:02.148Z,15.70
2022-10-11T11:20:59.785Z,15.80
2022-10-11T11:23:37.499Z,15.80
2022-10-11T11:26:25.880Z,15.90
2022-10-11T11:29:30.194Z,15.90
2022-10-11T11:32:19.370Z,15.80
2022-10-11T11:34:58.401Z,15.90
2022-10-11T11:37:27.435Z,16.10
2022-10-11T11:40:22.186Z,16.20
2022-10-11T11:42:54.485Z,16.30
2022-10-11T11:45:26.236Z,16.30
2022-10-11T11:48:04.687Z,16.20
2022-10-11T11:50:40.087Z,16.20
2022-10-11T11:53:12.685Z,16.20
2022-10-11T11:55:59.085Z,16.20
2022-10-11T11:58:45.940Z,16.20
2022-10-11T12:01:18.688Z,16.20
2022-10-11T12:03:52.703Z,16.20
2022-10-11T12:06:31.315Z,16.10
2022-10-11T12:09:17.754Z,16.10
2022-10-11T12:12:01.678Z,16.20
2022-10-11T12:14:37.642Z,16.20
2022-10-11T12:17:19.199Z,16.20
2022-10-11T12:20:01.567Z,16.20
2022-10-11T12:22:28.923Z,16.30
2022-10-11T12:25:09.099Z,16.30
2022-10-11T12:27:45.968Z,16.40
2022-10-11T12:30:44.460Z,16.70
2022-10-11T12:33:25.637Z,16.90
2022-10-11T12:35:52.884Z,17.00
2022-10-11T12:38:25.153Z,17.10
2022-10-11T12:41:08.590Z,17.10
2022-10-11T12:44:06.765Z,17.10
2022-10-11T12:46:40.310Z,16.90
2022-10-11T12:49:22.657Z,16.70
2022-10-11T12:52:18.327Z,16.60
2022-10-11T12:54:50.624Z,16.60
2022-10-11T12:57:45.916Z,16.50
2022-10-11T13:00:16.933Z,16.50
2022-10-11T13:02:44.449Z,16.40
2022-10-11T13:05:31.833Z,16.40
2022-10-11T13:08:02.270Z,16.40
2022-10-11T13:10:33.324Z,16.30
2022-10-11T13:13:04.299Z,16.30
2022-10-11T13:15:31.711Z,16.30
2022-10-11T13:18:00.221Z,16.30
2022-10-11T13:20:32.174Z,16.20
2022-10-11T13:22:59.525Z,16.20
2022-10-11T13:25:28.378Z,16.20
2022-10-11T13:27:57.096Z,16.10
2022-10-11T13:30:29.662Z,16.10
2022-10-11T13:32:57.482Z,16.10
2022-10-11T13:35:33.191Z,16.00
2022-10-11T13:38:00.827Z,16.00
2022-10-11T13:40:28.215Z,16.00
2022-10-11T13:42:55.639Z,16.00
2022-10-11T13:45:27.384Z,16.10
2022-10-11T13:47:54.787Z,16.10
2022-10-11T13:50:34.357Z,16.10
2022-10-11T13:53:03.091Z,16.10
2022-10-11T13:55:51.716Z,16.20
2022-10-11T13:58:25.873Z,16.20
2022-10-11T14:00:54.983Z,16.20
2022-10-11T14:03:22.292Z,16.20
2022-10-11T14:05:54.796Z,16.20
2022-10-11T14:08:31.928Z,16.10
2022-10-11T14:11:03.756Z,16.10
2022-10-11T14:13:44.120Z,16.10
2022-10-11T14:16:13.073Z,16.10
2022-10-11T14:18:48.314Z,16.10
2022-10-11T14:21:46.799Z,16.10
2022-10-11T14:24:14.546Z,16.10
2022-10-11T14:26:43.250Z,16.10
2022-10-11T14:29:15.011Z,16.00
2022-10-11T14:31:42.356Z,16.10
2022-10-11T14:34:17.517Z,16.10
2022-10-11T14:36:44.844Z,16.10
2022-10-11T14:39:17.746Z,16.00
2022-10-11T14:41:45.110Z,16.00
2022-10-11T14:44:12.726Z,15.90
2022-10-11T14:46:40.934Z,15.90
2022-10-11T14:49:19.103Z,15.90
2022-10-11T14:51:47.626Z,15.90
2022-10-11T14:54:15.404Z,15.90
2022-10-11T14:56:42.672Z,15.90
2022-10-11T14:59:15.558Z,15.80
2022-10-11T15:01:43.028Z,15.80
2022-10-11T15:04:10.346Z,15.80
2022-10-11T15:06:38.785Z,15.70
2022-10-11T15:09:06.254Z,15.70
2022-10-11T15:11:36.381Z,15.60
2022-10-11T15:14:03.987Z,15.60
2022-10-11T15:16:31.303Z,15.50
2022-10-11T15:18:58.574Z,15.50
2022-10-11T15:21:27.054Z,15.50
2022-10-11T15:23:54.864Z,15.40
2022-10-11T15:26:24.067Z,15.40
2022-10-11T15:28:51.723Z,15.30
2022-10-11T15:31:19.039Z,15.30
2022-10-11T15:33:46.494Z,15.30
2022-10-11T15:36:16.118Z,15.20
2022-10-11T15:38:43.612Z,15.20
2022-10-11T15:41:13.213Z,15.10
2022-10-11T15:43:40.684Z,15.10
2022-10-11T15:46:08.642Z,15.10
2022-10-11T15:48:37.848Z,15.00
2022-10-11T15:51:05.129Z,15.00
2022-10-11T15:53:32.466Z,14.90
2022-10-11T15:56:02.248Z,14.90
2022-10-11T15:58:37.704Z,14.80
2022-10-11T16:01:07.759Z,14.80
2022-10-11T16:03:35.414Z,14.80
2022-10-11T16:06:05.601Z,14.80
2022-10-11T16:08:33.982Z,14.70
2022-10-11T16:11:01.459Z,14.70
2022-10-11T16:13:28.734Z,14.70
2022-10-11T16:15:56.031Z,14.60
2022-10-11T16:18:23.301Z,14.60
2022-10-11T16:20:51.924Z,14.60
2022-10-11T16:23:20.379Z,14.60
2022-10-11T16:25:56.895Z,14.60
2022-10-11T16:28:24.329Z,14.60
2022-10-11T16:30:51.597Z,14.50
2022-10-11T16:33:18.882Z,14.50
2022-10-11T16:35:46.171Z,14.50
2022-10-11T16:38:13.483Z,14.40
2022-10-11T16:40:41.309Z,14.50
2022-10-11T16:43:08.619Z,14.40
2022-10-11T16:45:36.197Z,14.40
2022-10-11T16:48:03.559Z,14.40
2022-10-11T16:50:33.422Z,14.40
2022-10-11T16:53:04.212Z,14.40
2022-10-11T16:55:31.544Z,14.30
2022-10-11T16:57:58.781Z,14.30
2022-10-11T17:00:26.104Z,14.30
2022-10-11T17:02:53.406Z,14.30
2022-10-11T17:05:20.640Z,14.20
2022-10-11T17:07:47.879Z,14.20
2022-10-11T17:10:15.362Z,14.20
2022-10-11T17:12:46.461Z,14.20
2022-10-11T17:15:16.518Z,14.20
2022-10-11T17:17:43.815Z,14.20
2022-10-11T17:20:11.209Z,14.20
2022-10-11T17:22:38.447Z,14.10
2022-10-11T17:25:06.958Z,14.10
2022-10-11T17:27:34.220Z,14.10
2022-10-11T17:30:01.497Z,14.10
2022-10-11T17:32:28.753Z,14.00
2022-10-11T17:34:57.319Z,14.00
2022-10-11T17:37:24.548Z,14.00
2022-10-11T17:39:52.779Z,14.00
2022-10-11T17:42:20.066Z,14.00
2022-10-11T17:44:47.340Z,14.00
2022-10-11T17:47:15.044Z,14.00
2022-10-11T17:49:42.292Z,14.00
2022-10-11T17:52:09.571Z,14.00
2022-10-11T17:54:37.103Z,13.90
2022-10-11T17:57:04.406Z,13.90
2022-10-11T17:59:32.271Z,13.90
2022-10-11T18:01:59.550Z,13.90
2022-10-11T18:04:29.525Z,13.90
2022-10-11T18:06:56.836Z,13.90
2022-10-11T18:09:24.665Z,13.90
2022-10-11T18:11:51.985Z,13.90
2022-10-11T18:14:19.428Z,13.90
2022-10-11T18:16:46.692Z,13.80
2022-10-11T18:19:14.109Z,13.80
2022-10-11T18:21:41.563Z,13.80
2022-10-11T18:24:17.324Z,13.80
2022-10-11T18:26:45.008Z,13.80
2022-10-11T18:29:12.663Z,13.70
2022-10-11T18:31:40.251Z,13.70
2022-10-11T18:34:10.579Z,13.70
2022-10-11T18:36:37.973Z,13.70
2022-10-11T18:39:07.551Z,13.70
2022-10-11T18:41:35.331Z,13.70
2022-10-11T18:44:06.886Z,13.70
2022-10-11T18:46:34.246Z,13.60
2022-10-11T18:49:02.082Z,13.60
2022-10-11T18:51:34.932Z,13.60
2022-10-11T18:54:02.366Z,13.60
2022-10-11T18:56:30.125Z,13.60
2022-10-11T18:58:58.946Z,13.50
2022-10-11T19:01:31.190Z,13.50
2022-10-11T19:03:59.499Z,13.50
2022-10-11T19:06:28.730Z,13.50
2022-10-11T19:08:59.980Z,13.50
2022-10-11T19:11:27.216Z,13.40
2022-10-11T19:13:56.182Z,13.40
2022-10-11T19:16:23.548Z,13.40
2022-10-11T19:18:50.900Z,13.40
2022-10-11T19:21:18.323Z,13.40
2022-10-11T19:23:46.601Z,13.30
2022-10-11T19:26:14.732Z,13.40
2022-10-11T19:28:42.215Z,13.30
2022-10-11T19:31:10.439Z,13.40
2022-10-11T19:33:37.803Z,13.30
2022-10-11T19:36:05.681Z,13.30
2022-10-11T19:38:33.919Z,13.30
2022-10-11T19:41:01.730Z,13.30
2022-10-11T19:43:28.987Z,13.30
2022-10-11T19:46:00.670Z,13.30
2022-10-11T19:48:28.044Z,13.30
2022-10-11T19:51:06.184Z,13.30
2022-10-11T19:53:33.495Z,13.30
2022-10-11T19:56:02.277Z,13.30
2022-10-11T19:58:29.818Z,13.30
2022-10-11T20:01:08.270Z,13.20
2022-10-11T20:03:35.972Z,13.30
2022-10-11T20:06:04.647Z,13.30
2022-10-11T20:08:31.964Z,13.30
2022-10-11T20:10:59.880Z,13.30
2022-10-11T20:13:32.414Z,13.20
2022-10-11T20:16:04.822Z,13.20
2022-10-11T20:18:32.288Z,13.20
2022-10-11T20:21:01.075Z,13.20
2022-10-11T20:23:28.452Z,13.20
2022-10-11T20:26:05.779Z,13.20
2022-10-11T20:28:33.519Z,13.20
2022-10-11T20:31:01.291Z,13.20
2022-10-11T20:33:29.353Z,13.20
2022-10-11T20:36:01.140Z,13.20
2022-10-11T20:38:28.965Z,13.20
2022-10-11T20:40:56.283Z,13.20
2022-10-11T20:43:23.712Z,13.20
2022-10-11T20:46:04.179Z,13.20
2022-10-11T20:48:31.710Z,13.20
2022-10-11T20:50:59.078Z,13.20
2022-10-11T20:53:27.033Z,13.20
2022-10-11T20:55:54.798Z,13.20
2022-10-11T20:58:22.141Z,13.20
2022-10-11T21:00:49.502Z,13.20
2022-10-11T21:03:17.367Z,13.20
2022-10-11T21:05:44.722Z,13.20
2022-10-11T21:08:12.110Z,13.20
2022-10-11T21:10:39.526Z,13.20
2022-10-11T21:13:06.840Z,13.30
2022-10-11T21:15:34.132Z,13.20
2022-10-11T21:18:01.388Z,13.20
2022-10-11T21:20:28.663Z,13.20
2022-10-11T21:22:55.900Z,13.20
2022-10-11T21:25:23.147Z,13.20
2022-10-11T21:27:50.388Z,13.20
2022-10-11T21:30:17.650Z,13.20
2022-10-11T21:32:44.886Z,13.20
2022-10-11T21:35:12.159Z,13.20
2022-10-11T21:37:39.390Z,13.10
2022-10-11T21:40:06.952Z,13.20
2022-10-11T21:42:34.473Z,13.20
2022-10-11T21:45:02.024Z,13.10
2022-10-11T21:47:31.382Z,13.10
2022-10-11T21:49:58.735Z,13.10
2022-10-11T21:52:25.999Z,13.10
2022-10-11T21:54:53.236Z,13.10
2022-10-11T21:57:20.493Z,13.10
2022-10-11T21:59:47.786Z,13.10
2022-10-11T22:02:15.074Z,13.00
2022-10-11T22:04:43.479Z,13.10
2022-10-11T22:07:10.710Z,13.10
2022-10-11T22:09:38.417Z,13.10
2022-10-11T22:12:05.870Z,13.10
2022-10-11T22:14:33.126Z,13.00
2022-10-11T22:17:00.367Z,13.00
2022-10-11T22:19:27.631Z,13.00
2022-10-11T22:21:54.887Z,13.00
2022-10-11T22:24:22.143Z,13.00
2022-10-11T22:26:49.400Z,13.00
2022-10-11T22:29:16.640Z,13.00
2022-10-11T22:31:43.972Z,12.90
2022-10-11T22:34:11.252Z,12.90
2022-10-11T22:36:38.503Z,13.00
2022-10-11T22:39:08.044Z,12.90
2022-10-11T22:41:35.898Z,12.90
2022-10-11T22:44:03.203Z,12.90
2022-10-11T22:46:30.486Z,12.80
2022-10-11T22:48:57.743Z,12.70
2022-10-11T22:51:24.987Z,12.70
2022-10-11T22:53:52.275Z,12.70
2022-10-11T22:56:19.531Z,12.70
2022-10-11T22:58:46.826Z,12.70
2022-10-11T23:01:15.113Z,12.70
2022-10-11T23:03:42.853Z,12.60
2022-10-11T23:06:10.253Z,12.50
2022-10-11T23:08:37.525Z,12.50
2022-10-11T23:11:07.876Z,12.50
2022-10-11T23:13:35.715Z,12.40
2022-10-11T23:16:07.780Z,12.40
2022-10-11T23:18:35.041Z,12.40
2022-10-11T23:21:02.625Z,12.30
2022-10-11T23:23:29.946Z,12.30
2022-10-11T23:26:11.990Z,12.20
2022-10-11T23:28:39.475Z,12.20
2022-10-11T23:31:24.963Z,12.20
2022-10-11T23:33:52.980Z,12.20
2022-10-11T23:36:22.362Z,12.20
2022-10-11T23:38:53.567Z,12.10
2022-10-11T23:41:21.771Z,12.10
2022-10-11T23:43:49.107Z,12.10
2022-10-11T23:46:16.383Z,12.10
2022-10-11T23:48:43.643Z,12.00
2022-10-11T23:51:11.044Z,12.00
2022-10-11T23:53:38.299Z,12.00
2022-10-11T23:56:05.954Z,12.00
2022-10-11T23:58:33.321Z,12.00
